sensor_id;sensor_type;location;lat;lon;timestamp;P1;durP1;ratioP1;P2;durP2;ratioP2
55210;SDS011;41082;52.822;6.666;2023-02-12T00:00:03;22.50;;;10.55;;
55210;SDS011;41082;52.822;6.666;2023-02-12T00:02:31;22.98;;;10.18;;
55210;SDS011;41082;52.822;6.666;2023-02-12T00:04:56;23.42;;;11.18;;
55210;SDS011;41082;52.822;6.666;2023-02-12T00:07:22;18.65;;;9.98;;
55210;SDS011;41082;52.822;6.666;2023-02-12T00:09:47;20.10;;;9.50;;
55210;SDS011;41082;52.822;6.666;2023-02-12T00:12:13;23.30;;;9.85;;
55210;SDS011;41082;52.822;6.666;2023-02-12T00:14:38;26.58;;;10.05;;
55210;SDS011;41082;52.822;6.666;2023-02-12T00:17:04;21.38;;;10.52;;
55210;SDS011;41082;52.822;6.666;2023-02-12T00:19:29;22.45;;;10.63;;
55210;SDS011;41082;52.822;6.666;2023-02-12T00:21:55;20.98;;;10.27;;
55210;SDS011;41082;52.822;6.666;2023-02-12T00:24:21;22.55;;;9.80;;
55210;SDS011;41082;52.822;6.666;2023-02-12T00:26:46;23.98;;;11.10;;
55210;SDS011;41082;52.822;6.666;2023-02-12T00:29:13;20.60;;;10.45;;
55210;SDS011;41082;52.822;6.666;2023-02-12T00:31:39;20.95;;;9.98;;
55210;SDS011;41082;52.822;6.666;2023-02-12T00:34:04;27.35;;;10.90;;
55210;SDS011;41082;52.822;6.666;2023-02-12T00:36:30;22.65;;;10.38;;
55210;SDS011;41082;52.822;6.666;2023-02-12T00:38:56;20.83;;;10.35;;
55210;SDS011;41082;52.822;6.666;2023-02-12T00:41:22;18.40;;;10.27;;
55210;SDS011;41082;52.822;6.666;2023-02-12T00:43:48;24.67;;;10.20;;
55210;SDS011;41082;52.822;6.666;2023-02-12T00:46:14;22.15;;;10.85;;
55210;SDS011;41082;52.822;6.666;2023-02-12T00:48:40;25.83;;;11.07;;
55210;SDS011;41082;52.822;6.666;2023-02-12T00:51:06;28.15;;;11.25;;
55210;SDS011;41082;52.822;6.666;2023-02-12T00:53:32;25.77;;;11.82;;
55210;SDS011;41082;52.822;6.666;2023-02-12T00:55:58;25.65;;;12.25;;
55210;SDS011;41082;52.822;6.666;2023-02-12T00:58:25;23.35;;;11.00;;
55210;SDS011;41082;52.822;6.666;2023-02-12T01:00:51;25.92;;;12.05;;
55210;SDS011;41082;52.822;6.666;2023-02-12T01:03:17;32.70;;;13.60;;
55210;SDS011;41082;52.822;6.666;2023-02-12T01:05:43;27.48;;;12.00;;
55210;SDS011;41082;52.822;6.666;2023-02-12T01:08:10;21.13;;;10.98;;
55210;SDS011;41082;52.822;6.666;2023-02-12T01:10:37;25.17;;;11.20;;
55210;SDS011;41082;52.822;6.666;2023-02-12T01:13:03;25.30;;;12.48;;
55210;SDS011;41082;52.822;6.666;2023-02-12T01:15:29;22.75;;;12.23;;
55210;SDS011;41082;52.822;6.666;2023-02-12T01:17:54;23.35;;;12.35;;
55210;SDS011;41082;52.822;6.666;2023-02-12T01:20:21;21.63;;;11.48;;
55210;SDS011;41082;52.822;6.666;2023-02-12T01:22:48;28.17;;;12.60;;
55210;SDS011;41082;52.822;6.666;2023-02-12T01:25:14;22.20;;;12.43;;
55210;SDS011;41082;52.822;6.666;2023-02-12T01:27:39;26.45;;;11.73;;
55210;SDS011;41082;52.822;6.666;2023-02-12T01:30:06;22.13;;;10.82;;
55210;SDS011;41082;52.822;6.666;2023-02-12T01:32:33;24.05;;;11.65;;
55210;SDS011;41082;52.822;6.666;2023-02-12T01:34:59;26.98;;;10.68;;
55210;SDS011;41082;52.822;6.666;2023-02-12T01:37:25;23.30;;;11.63;;
55210;SDS011;41082;52.822;6.666;2023-02-12T01:39:51;26.73;;;12.18;;
55210;SDS011;41082;52.822;6.666;2023-02-12T01:42:16;29.50;;;12.65;;
55210;SDS011;41082;52.822;6.666;2023-02-12T01:45:17;25.60;;;12.88;;
55210;SDS011;41082;52.822;6.666;2023-02-12T01:47:36;27.73;;;12.43;;
55210;SDS011;41082;52.822;6.666;2023-02-12T01:50:06;29.10;;;13.60;;
55210;SDS011;41082;52.822;6.666;2023-02-12T01:52:35;29.17;;;13.05;;
55210;SDS011;41082;52.822;6.666;2023-02-12T01:55:04;24.75;;;12.95;;
55210;SDS011;41082;52.822;6.666;2023-02-12T01:57:33;27.33;;;13.27;;
55210;SDS011;41082;52.822;6.666;2023-02-12T02:00:03;31.58;;;14.07;;
55210;SDS011;41082;52.822;6.666;2023-02-12T02:02:32;28.38;;;13.80;;
55210;SDS011;41082;52.822;6.666;2023-02-12T02:04:59;26.95;;;13.85;;
55210;SDS011;41082;52.822;6.666;2023-02-12T02:07:27;30.58;;;13.85;;
55210;SDS011;41082;52.822;6.666;2023-02-12T02:09:53;31.25;;;14.35;;
55210;SDS011;41082;52.822;6.666;2023-02-12T02:12:20;25.63;;;13.73;;
55210;SDS011;41082;52.822;6.666;2023-02-12T02:15:04;25.92;;;13.98;;
55210;SDS011;41082;52.822;6.666;2023-02-12T02:17:33;31.45;;;14.02;;
55210;SDS011;41082;52.822;6.666;2023-02-12T02:31:33;33.60;;;15.43;;
55210;SDS011;41082;52.822;6.666;2023-02-12T02:36:46;34.92;;;15.73;;
55210;SDS011;41082;52.822;6.666;2023-02-12T02:40:18;33.63;;;14.73;;
55210;SDS011;41082;52.822;6.666;2023-02-12T02:42:36;33.35;;;14.23;;
55210;SDS011;41082;52.822;6.666;2023-02-12T02:45:13;31.95;;;14.73;;
55210;SDS011;41082;52.822;6.666;2023-02-12T02:47:44;37.72;;;16.08;;
55210;SDS011;41082;52.822;6.666;2023-02-12T02:50:18;31.65;;;14.30;;
55210;SDS011;41082;52.822;6.666;2023-02-12T02:52:55;32.05;;;13.65;;
55210;SDS011;41082;52.822;6.666;2023-02-12T02:55:31;25.40;;;14.23;;
55210;SDS011;41082;52.822;6.666;2023-02-12T02:58:16;28.95;;;14.00;;
55210;SDS011;41082;52.822;6.666;2023-02-12T03:00:47;28.92;;;14.52;;
55210;SDS011;41082;52.822;6.666;2023-02-12T03:05:54;24.17;;;13.75;;
55210;SDS011;41082;52.822;6.666;2023-02-12T03:08:32;26.30;;;13.63;;
55210;SDS011;41082;52.822;6.666;2023-02-12T03:11:04;25.00;;;13.27;;
55210;SDS011;41082;52.822;6.666;2023-02-12T03:14:09;30.67;;;13.75;;
55210;SDS011;41082;52.822;6.666;2023-02-12T03:16:50;32.20;;;14.63;;
55210;SDS011;41082;52.822;6.666;2023-02-12T03:19:23;28.70;;;15.20;;
55210;SDS011;41082;52.822;6.666;2023-02-12T03:21:55;32.53;;;14.77;;
55210;SDS011;41082;52.822;6.666;2023-02-12T03:24:38;24.65;;;14.35;;
55210;SDS011;41082;52.822;6.666;2023-02-12T03:27:09;32.92;;;14.90;;
55210;SDS011;41082;52.822;6.666;2023-02-12T03:29:41;33.10;;;14.55;;
55210;SDS011;41082;52.822;6.666;2023-02-12T03:40:21;28.20;;;15.32;;
55210;SDS011;41082;52.822;6.666;2023-02-12T03:43:03;31.17;;;15.93;;
55210;SDS011;41082;52.822;6.666;2023-02-12T03:45:50;26.02;;;15.13;;
55210;SDS011;41082;52.822;6.666;2023-02-12T03:50:57;30.95;;;15.02;;
55210;SDS011;41082;52.822;6.666;2023-02-12T03:53:44;34.00;;;17.15;;
55210;SDS011;41082;52.822;6.666;2023-02-12T03:56:15;32.40;;;15.63;;
55210;SDS011;41082;52.822;6.666;2023-02-12T03:58:46;37.20;;;16.77;;
55210;SDS011;41082;52.822;6.666;2023-02-12T04:01:12;36.78;;;16.65;;
55210;SDS011;41082;52.822;6.666;2023-02-12T04:03:38;29.20;;;16.10;;
55210;SDS011;41082;52.822;6.666;2023-02-12T04:06:14;33.10;;;16.35;;
55210;SDS011;41082;52.822;6.666;2023-02-12T04:08:46;36.28;;;15.68;;
55210;SDS011;41082;52.822;6.666;2023-02-12T04:16:57;41.78;;;17.13;;
55210;SDS011;41082;52.822;6.666;2023-02-12T04:25:20;46.65;;;16.10;;
55210;SDS011;41082;52.822;6.666;2023-02-12T04:27:59;47.20;;;15.90;;
55210;SDS011;41082;52.822;6.666;2023-02-12T04:30:42;47.75;;;15.45;;
55210;SDS011;41082;52.822;6.666;2023-02-12T04:33:12;52.47;;;17.08;;
55210;SDS011;41082;52.822;6.666;2023-02-12T04:38:12;65.80;;;16.70;;
55210;SDS011;41082;52.822;6.666;2023-02-12T04:40:39;74.28;;;14.88;;
55210;SDS011;41082;52.822;6.666;2023-02-12T04:43:06;74.72;;;15.55;;
55210;SDS011;41082;52.822;6.666;2023-02-12T04:45:33;63.78;;;16.15;;
55210;SDS011;41082;52.822;6.666;2023-02-12T04:48:00;56.30;;;13.75;;
55210;SDS011;41082;52.822;6.666;2023-02-12T04:50:27;59.00;;;15.18;;
55210;SDS011;41082;52.822;6.666;2023-02-12T04:53:05;37.95;;;13.45;;
55210;SDS011;41082;52.822;6.666;2023-02-12T04:55:31;48.10;;;13.55;;
55210;SDS011;41082;52.822;6.666;2023-02-12T04:57:56;40.25;;;13.20;;
55210;SDS011;41082;52.822;6.666;2023-02-12T05:00:22;45.58;;;14.05;;
55210;SDS011;41082;52.822;6.666;2023-02-12T05:02:47;59.90;;;13.35;;
55210;SDS011;41082;52.822;6.666;2023-02-12T05:05:13;44.97;;;13.52;;
55210;SDS011;41082;52.822;6.666;2023-02-12T05:07:38;41.65;;;14.20;;
55210;SDS011;41082;52.822;6.666;2023-02-12T05:10:04;40.88;;;13.48;;
55210;SDS011;41082;52.822;6.666;2023-02-12T05:12:30;46.17;;;14.55;;
55210;SDS011;41082;52.822;6.666;2023-02-12T05:14:56;39.92;;;13.90;;
55210;SDS011;41082;52.822;6.666;2023-02-12T05:17:22;30.55;;;12.38;;
55210;SDS011;41082;52.822;6.666;2023-02-12T05:19:48;37.60;;;14.10;;
55210;SDS011;41082;52.822;6.666;2023-02-12T05:22:14;60.75;;;13.68;;
55210;SDS011;41082;52.822;6.666;2023-02-12T05:24:39;48.13;;;13.13;;
55210;SDS011;41082;52.822;6.666;2023-02-12T05:27:05;33.42;;;12.57;;
55210;SDS011;41082;52.822;6.666;2023-02-12T05:29:32;54.55;;;12.63;;
55210;SDS011;41082;52.822;6.666;2023-02-12T05:31:57;38.08;;;13.38;;
55210;SDS011;41082;52.822;6.666;2023-02-12T05:34:23;52.28;;;14.23;;
55210;SDS011;41082;52.822;6.666;2023-02-12T05:36:48;44.72;;;14.93;;
55210;SDS011;41082;52.822;6.666;2023-02-12T05:39:14;65.45;;;15.93;;
55210;SDS011;41082;52.822;6.666;2023-02-12T05:41:40;67.63;;;17.02;;
55210;SDS011;41082;52.822;6.666;2023-02-12T05:44:06;61.85;;;16.30;;
55210;SDS011;41082;52.822;6.666;2023-02-12T05:46:32;60.17;;;15.07;;
55210;SDS011;41082;52.822;6.666;2023-02-12T05:48:57;51.33;;;14.88;;
55210;SDS011;41082;52.822;6.666;2023-02-12T05:51:24;44.25;;;14.73;;
55210;SDS011;41082;52.822;6.666;2023-02-12T05:53:51;40.10;;;14.75;;
55210;SDS011;41082;52.822;6.666;2023-02-12T05:56:25;38.95;;;14.65;;
55210;SDS011;41082;52.822;6.666;2023-02-12T05:58:59;37.78;;;14.60;;
55210;SDS011;41082;52.822;6.666;2023-02-12T06:01:34;41.83;;;14.45;;
55210;SDS011;41082;52.822;6.666;2023-02-12T06:04:02;35.67;;;13.45;;
55210;SDS011;41082;52.822;6.666;2023-02-12T06:06:29;36.53;;;13.63;;
55210;SDS011;41082;52.822;6.666;2023-02-12T06:08:55;35.78;;;13.57;;
55210;SDS011;41082;52.822;6.666;2023-02-12T06:11:21;33.47;;;13.20;;
55210;SDS011;41082;52.822;6.666;2023-02-12T06:13:47;31.40;;;13.60;;
55210;SDS011;41082;52.822;6.666;2023-02-12T06:16:20;37.83;;;13.38;;
55210;SDS011;41082;52.822;6.666;2023-02-12T06:18:53;37.45;;;13.77;;
55210;SDS011;41082;52.822;6.666;2023-02-12T06:21:20;28.10;;;12.85;;
55210;SDS011;41082;52.822;6.666;2023-02-12T06:23:47;35.80;;;14.15;;
55210;SDS011;41082;52.822;6.666;2023-02-12T06:26:13;30.55;;;13.75;;
55210;SDS011;41082;52.822;6.666;2023-02-12T06:28:39;29.45;;;13.30;;
55210;SDS011;41082;52.822;6.666;2023-02-12T06:31:05;29.65;;;14.30;;
55210;SDS011;41082;52.822;6.666;2023-02-12T06:33:50;30.40;;;14.15;;
55210;SDS011;41082;52.822;6.666;2023-02-12T06:36:16;29.17;;;13.48;;
55210;SDS011;41082;52.822;6.666;2023-02-12T06:38:42;33.17;;;14.00;;
55210;SDS011;41082;52.822;6.666;2023-02-12T06:41:07;31.35;;;14.75;;
55210;SDS011;41082;52.822;6.666;2023-02-12T06:43:33;31.85;;;13.30;;
55210;SDS011;41082;52.822;6.666;2023-02-12T06:45:59;26.30;;;14.27;;
55210;SDS011;41082;52.822;6.666;2023-02-12T06:48:26;31.75;;;15.65;;
55210;SDS011;41082;52.822;6.666;2023-02-12T06:50:52;36.75;;;15.40;;
55210;SDS011;41082;52.822;6.666;2023-02-12T06:53:17;33.50;;;14.80;;
55210;SDS011;41082;52.822;6.666;2023-02-12T06:55:43;31.10;;;14.98;;
55210;SDS011;41082;52.822;6.666;2023-02-12T06:58:08;38.40;;;15.82;;
55210;SDS011;41082;52.822;6.666;2023-02-12T07:00:34;37.08;;;16.15;;
55210;SDS011;41082;52.822;6.666;2023-02-12T07:03:00;35.38;;;15.50;;
55210;SDS011;41082;52.822;6.666;2023-02-12T07:05:25;38.15;;;16.63;;
55210;SDS011;41082;52.822;6.666;2023-02-12T07:07:51;41.95;;;17.65;;
55210;SDS011;41082;52.822;6.666;2023-02-12T07:10:17;40.28;;;16.60;;
55210;SDS011;41082;52.822;6.666;2023-02-12T07:12:43;40.33;;;17.55;;
55210;SDS011;41082;52.822;6.666;2023-02-12T07:15:09;43.25;;;17.88;;
55210;SDS011;41082;52.822;6.666;2023-02-12T07:17:34;53.40;;;19.35;;
55210;SDS011;41082;52.822;6.666;2023-02-12T07:20:01;45.90;;;18.80;;
55210;SDS011;41082;52.822;6.666;2023-02-12T07:22:27;48.72;;;19.73;;
55210;SDS011;41082;52.822;6.666;2023-02-12T07:24:52;43.88;;;17.98;;
55210;SDS011;41082;52.822;6.666;2023-02-12T07:27:18;46.42;;;18.88;;
55210;SDS011;41082;52.822;6.666;2023-02-12T07:29:43;46.75;;;19.63;;
55210;SDS011;41082;52.822;6.666;2023-02-12T07:32:09;45.22;;;18.80;;
55210;SDS011;41082;52.822;6.666;2023-02-12T07:34:35;45.20;;;18.88;;
55210;SDS011;41082;52.822;6.666;2023-02-12T07:37:00;53.15;;;20.75;;
55210;SDS011;41082;52.822;6.666;2023-02-12T07:39:26;52.30;;;20.13;;
55210;SDS011;41082;52.822;6.666;2023-02-12T07:41:51;46.78;;;18.50;;
55210;SDS011;41082;52.822;6.666;2023-02-12T07:44:17;49.30;;;18.98;;
55210;SDS011;41082;52.822;6.666;2023-02-12T07:46:44;47.00;;;19.20;;
55210;SDS011;41082;52.822;6.666;2023-02-12T07:49:16;52.50;;;19.05;;
55210;SDS011;41082;52.822;6.666;2023-02-12T07:51:45;48.17;;;19.33;;
55210;SDS011;41082;52.822;6.666;2023-02-12T07:54:12;45.63;;;19.15;;
55210;SDS011;41082;52.822;6.666;2023-02-12T07:56:38;47.20;;;18.80;;
55210;SDS011;41082;52.822;6.666;2023-02-12T07:59:06;48.17;;;20.20;;
55210;SDS011;41082;52.822;6.666;2023-02-12T08:01:37;43.78;;;19.10;;
55210;SDS011;41082;52.822;6.666;2023-02-12T08:04:06;43.75;;;18.35;;
55210;SDS011;41082;52.822;6.666;2023-02-12T08:06:34;44.05;;;18.05;;
55210;SDS011;41082;52.822;6.666;2023-02-12T08:09:03;47.83;;;19.80;;
55210;SDS011;41082;52.822;6.666;2023-02-12T08:11:31;44.92;;;19.65;;
55210;SDS011;41082;52.822;6.666;2023-02-12T08:13:57;42.97;;;18.85;;
55210;SDS011;41082;52.822;6.666;2023-02-12T08:16:24;44.42;;;19.05;;
55210;SDS011;41082;52.822;6.666;2023-02-12T08:18:51;39.35;;;17.42;;
55210;SDS011;41082;52.822;6.666;2023-02-12T08:21:21;40.33;;;18.98;;
55210;SDS011;41082;52.822;6.666;2023-02-12T08:23:48;40.05;;;18.40;;
55210;SDS011;41082;52.822;6.666;2023-02-12T08:28:46;37.75;;;19.95;;
55210;SDS011;41082;52.822;6.666;2023-02-12T08:31:19;36.75;;;17.38;;
55210;SDS011;41082;52.822;6.666;2023-02-12T08:33:46;40.05;;;18.52;;
55210;SDS011;41082;52.822;6.666;2023-02-12T08:36:14;37.85;;;18.45;;
55210;SDS011;41082;52.822;6.666;2023-02-12T08:38:42;38.97;;;18.92;;
55210;SDS011;41082;52.822;6.666;2023-02-12T08:41:13;34.33;;;17.73;;
55210;SDS011;41082;52.822;6.666;2023-02-12T08:43:43;38.00;;;18.27;;
55210;SDS011;41082;52.822;6.666;2023-02-12T08:46:10;37.03;;;19.08;;
55210;SDS011;41082;52.822;6.666;2023-02-12T08:48:39;31.85;;;18.25;;
55210;SDS011;41082;52.822;6.666;2023-02-12T08:51:09;39.58;;;19.27;;
55210;SDS011;41082;52.822;6.666;2023-02-12T08:53:44;38.05;;;18.98;;
55210;SDS011;41082;52.822;6.666;2023-02-12T08:56:11;38.35;;;19.63;;
55210;SDS011;41082;52.822;6.666;2023-02-12T08:58:40;34.95;;;19.67;;
55210;SDS011;41082;52.822;6.666;2023-02-12T09:01:10;35.55;;;20.08;;
55210;SDS011;41082;52.822;6.666;2023-02-12T09:03:40;33.25;;;17.80;;
55210;SDS011;41082;52.822;6.666;2023-02-12T09:06:06;38.75;;;18.98;;
55210;SDS011;41082;52.822;6.666;2023-02-12T09:08:33;35.42;;;18.83;;
55210;SDS011;41082;52.822;6.666;2023-02-12T09:11:03;34.75;;;18.38;;
55210;SDS011;41082;52.822;6.666;2023-02-12T09:13:33;33.17;;;18.55;;
55210;SDS011;41082;52.822;6.666;2023-02-12T09:16:00;36.47;;;19.55;;
55210;SDS011;41082;52.822;6.666;2023-02-12T09:18:27;34.20;;;19.67;;
55210;SDS011;41082;52.822;6.666;2023-02-12T09:20:52;38.85;;;21.00;;
55210;SDS011;41082;52.822;6.666;2023-02-12T09:23:18;34.80;;;19.38;;
55210;SDS011;41082;52.822;6.666;2023-02-12T09:25:44;35.20;;;19.33;;
55210;SDS011;41082;52.822;6.666;2023-02-12T09:28:11;38.55;;;20.27;;
55210;SDS011;41082;52.822;6.666;2023-02-12T09:30:38;40.33;;;19.73;;
55210;SDS011;41082;52.822;6.666;2023-02-12T09:33:05;37.80;;;20.67;;
55210;SDS011;41082;52.822;6.666;2023-02-12T09:35:34;37.70;;;20.63;;
55210;SDS011;41082;52.822;6.666;2023-02-12T09:38:00;35.78;;;20.30;;
55210;SDS011;41082;52.822;6.666;2023-02-12T09:40:31;36.60;;;20.42;;
55210;SDS011;41082;52.822;6.666;2023-02-12T09:48:31;35.35;;;19.95;;
55210;SDS011;41082;52.822;6.666;2023-02-12T09:51:06;37.85;;;20.38;;
55210;SDS011;41082;52.822;6.666;2023-02-12T09:53:34;36.45;;;20.25;;
55210;SDS011;41082;52.822;6.666;2023-02-12T09:56:14;34.97;;;20.27;;
55210;SDS011;41082;52.822;6.666;2023-02-12T09:58:45;34.78;;;19.60;;
55210;SDS011;41082;52.822;6.666;2023-02-12T10:01:12;35.65;;;20.42;;
55210;SDS011;41082;52.822;6.666;2023-02-12T10:03:40;34.03;;;20.13;;
55210;SDS011;41082;52.822;6.666;2023-02-12T10:06:08;33.63;;;18.88;;
55210;SDS011;41082;52.822;6.666;2023-02-12T10:08:56;34.00;;;18.90;;
55210;SDS011;41082;52.822;6.666;2023-02-12T10:17:25;37.60;;;19.33;;
55210;SDS011;41082;52.822;6.666;2023-02-12T10:26:00;31.98;;;18.40;;
55210;SDS011;41082;52.822;6.666;2023-02-12T10:28:33;34.78;;;18.48;;
55210;SDS011;41082;52.822;6.666;2023-02-12T10:31:07;33.50;;;19.25;;
55210;SDS011;41082;52.822;6.666;2023-02-12T10:33:41;31.70;;;17.90;;
55210;SDS011;41082;52.822;6.666;2023-02-12T10:36:31;36.45;;;18.60;;
55210;SDS011;41082;52.822;6.666;2023-02-12T10:41:34;25.35;;;15.80;;
55210;SDS011;41082;52.822;6.666;2023-02-12T10:44:08;26.95;;;15.77;;
55210;SDS011;41082;52.822;6.666;2023-02-12T10:46:34;25.02;;;15.75;;
55210;SDS011;41082;52.822;6.666;2023-02-12T10:49:00;26.52;;;16.08;;
55210;SDS011;41082;52.822;6.666;2023-02-12T10:54:30;24.73;;;14.63;;
55210;SDS011;41082;52.822;6.666;2023-02-12T10:57:13;21.75;;;12.95;;
55210;SDS011;41082;52.822;6.666;2023-02-12T10:59:45;20.83;;;12.85;;
55210;SDS011;41082;52.822;6.666;2023-02-12T11:04:46;18.80;;;11.40;;
55210;SDS011;41082;52.822;6.666;2023-02-12T11:07:12;18.83;;;11.23;;
55210;SDS011;41082;52.822;6.666;2023-02-12T11:12:16;20.15;;;10.60;;
55210;SDS011;41082;52.822;6.666;2023-02-12T11:17:38;17.10;;;8.93;;
55210;SDS011;41082;52.822;6.666;2023-02-12T11:22:33;16.15;;;10.82;;
55210;SDS011;41082;52.822;6.666;2023-02-12T11:25:01;20.95;;;11.65;;
55210;SDS011;41082;52.822;6.666;2023-02-12T11:27:32;17.27;;;10.68;;
55210;SDS011;41082;52.822;6.666;2023-02-12T11:30:18;17.38;;;11.45;;
55210;SDS011;41082;52.822;6.666;2023-02-12T11:32:45;20.42;;;11.52;;
55210;SDS011;41082;52.822;6.666;2023-02-12T11:37:42;17.83;;;12.18;;
55210;SDS011;41082;52.822;6.666;2023-02-12T11:40:14;21.38;;;13.13;;
55210;SDS011;41082;52.822;6.666;2023-02-12T11:42:45;16.45;;;11.63;;
55210;SDS011;41082;52.822;6.666;2023-02-12T11:45:26;17.48;;;10.85;;
55210;SDS011;41082;52.822;6.666;2023-02-12T11:48:21;16.73;;;10.45;;
55210;SDS011;41082;52.822;6.666;2023-02-12T11:50:52;20.85;;;11.18;;
55210;SDS011;41082;52.822;6.666;2023-02-12T11:53:22;18.42;;;10.98;;
55210;SDS011;41082;52.822;6.666;2023-02-12T11:55:53;21.23;;;12.18;;
55210;SDS011;41082;52.822;6.666;2023-02-12T11:58:24;21.00;;;12.05;;
55210;SDS011;41082;52.822;6.666;2023-02-12T12:03:37;19.67;;;11.70;;
55210;SDS011;41082;52.822;6.666;2023-02-12T12:06:15;21.85;;;11.95;;
55210;SDS011;41082;52.822;6.666;2023-02-12T12:08:55;20.00;;;12.20;;
55210;SDS011;41082;52.822;6.666;2023-02-12T12:19:55;20.58;;;11.40;;
55210;SDS011;41082;52.822;6.666;2023-02-12T12:31:06;17.98;;;9.98;;
55210;SDS011;41082;52.822;6.666;2023-02-12T12:33:46;14.20;;;9.10;;
55210;SDS011;41082;52.822;6.666;2023-02-12T12:39:16;16.05;;;10.18;;
55210;SDS011;41082;52.822;6.666;2023-02-12T12:42:01;17.42;;;9.02;;
55210;SDS011;41082;52.822;6.666;2023-02-12T12:45:05;15.05;;;7.85;;
55210;SDS011;41082;52.822;6.666;2023-02-12T12:56:41;9.35;;;5.55;;
55210;SDS011;41082;52.822;6.666;2023-02-12T12:59:19;11.13;;;4.78;;
55210;SDS011;41082;52.822;6.666;2023-02-12T13:10:53;8.02;;;4.45;;
55210;SDS011;41082;52.822;6.666;2023-02-12T13:13:26;7.65;;;4.63;;
55210;SDS011;41082;52.822;6.666;2023-02-12T13:16:13;11.13;;;5.65;;
55210;SDS011;41082;52.822;6.666;2023-02-12T13:19:03;9.18;;;5.18;;
55210;SDS011;41082;52.822;6.666;2023-02-12T13:24:33;10.15;;;4.85;;
55210;SDS011;41082;52.822;6.666;2023-02-12T13:33:13;10.27;;;5.45;;
55210;SDS011;41082;52.822;6.666;2023-02-12T13:35:55;11.50;;;4.93;;
55210;SDS011;41082;52.822;6.666;2023-02-12T13:38:25;8.85;;;5.13;;
55210;SDS011;41082;52.822;6.666;2023-02-12T13:41:13;11.25;;;5.35;;
55210;SDS011;41082;52.822;6.666;2023-02-12T13:46:13;11.43;;;5.53;;
55210;SDS011;41082;52.822;6.666;2023-02-12T13:57:13;9.68;;;5.22;;
55210;SDS011;41082;52.822;6.666;2023-02-12T13:59:42;10.70;;;3.80;;
55210;SDS011;41082;52.822;6.666;2023-02-12T14:04:57;6.00;;;3.28;;
55210;SDS011;41082;52.822;6.666;2023-02-12T14:07:24;8.75;;;3.65;;
55210;SDS011;41082;52.822;6.666;2023-02-12T14:10:45;8.00;;;3.78;;
55210;SDS011;41082;52.822;6.666;2023-02-12T14:13:44;8.32;;;3.58;;
55210;SDS011;41082;52.822;6.666;2023-02-12T14:16:16;6.07;;;3.13;;
55210;SDS011;41082;52.822;6.666;2023-02-12T14:18:44;3.88;;;1.08;;
55210;SDS011;41082;52.822;6.666;2023-02-12T14:23:35;4.45;;;0.98;;
55210;SDS011;41082;52.822;6.666;2023-02-12T14:26:11;5.15;;;1.58;;
55210;SDS011;41082;52.822;6.666;2023-02-12T14:28:42;4.60;;;1.83;;
55210;SDS011;41082;52.822;6.666;2023-02-12T14:31:34;7.88;;;2.53;;
55210;SDS011;41082;52.822;6.666;2023-02-12T14:41:40;4.53;;;3.03;;
55210;SDS011;41082;52.822;6.666;2023-02-12T14:46:52;7.93;;;3.28;;
55210;SDS011;41082;52.822;6.666;2023-02-12T14:59:46;4.80;;;1.80;;
55210;SDS011;41082;52.822;6.666;2023-02-12T15:02:17;4.10;;;2.00;;
55210;SDS011;41082;52.822;6.666;2023-02-12T15:04:52;3.63;;;1.67;;
55210;SDS011;41082;52.822;6.666;2023-02-12T15:07:28;5.07;;;3.00;;
55210;SDS011;41082;52.822;6.666;2023-02-12T15:10:31;4.65;;;2.10;;
55210;SDS011;41082;52.822;6.666;2023-02-12T15:13:04;5.70;;;2.13;;
55210;SDS011;41082;52.822;6.666;2023-02-12T15:15:44;3.40;;;1.73;;
55210;SDS011;41082;52.822;6.666;2023-02-12T15:24:03;2.47;;;1.85;;
55210;SDS011;41082;52.822;6.666;2023-02-12T15:26:35;3.40;;;2.00;;
55210;SDS011;41082;52.822;6.666;2023-02-12T15:29:04;3.15;;;1.90;;
55210;SDS011;41082;52.822;6.666;2023-02-12T15:31:31;3.88;;;1.80;;
55210;SDS011;41082;52.822;6.666;2023-02-12T15:33:58;4.32;;;1.52;;
55210;SDS011;41082;52.822;6.666;2023-02-12T15:36:26;3.08;;;1.50;;
55210;SDS011;41082;52.822;6.666;2023-02-12T15:38:57;5.15;;;2.22;;
55210;SDS011;41082;52.822;6.666;2023-02-12T15:46:23;4.22;;;2.17;;
55210;SDS011;41082;52.822;6.666;2023-02-12T15:48:49;4.35;;;2.42;;
55210;SDS011;41082;52.822;6.666;2023-02-12T15:53:52;8.35;;;3.03;;
55210;SDS011;41082;52.822;6.666;2023-02-12T15:56:19;4.53;;;2.35;;
55210;SDS011;41082;52.822;6.666;2023-02-12T15:58:51;4.28;;;2.33;;
55210;SDS011;41082;52.822;6.666;2023-02-12T16:01:22;3.78;;;2.35;;
55210;SDS011;41082;52.822;6.666;2023-02-12T16:03:50;3.35;;;2.50;;
55210;SDS011;41082;52.822;6.666;2023-02-12T16:06:17;5.05;;;2.70;;
55210;SDS011;41082;52.822;6.666;2023-02-12T16:08:57;6.45;;;3.42;;
55210;SDS011;41082;52.822;6.666;2023-02-12T16:11:25;3.35;;;2.65;;
55210;SDS011;41082;52.822;6.666;2023-02-12T16:13:57;6.13;;;3.33;;
55210;SDS011;41082;52.822;6.666;2023-02-12T16:16:26;6.35;;;3.60;;
55210;SDS011;41082;52.822;6.666;2023-02-12T16:19:12;6.78;;;3.08;;
55210;SDS011;41082;52.822;6.666;2023-02-12T16:21:46;5.50;;;2.95;;
55210;SDS011;41082;52.822;6.666;2023-02-12T16:24:24;7.43;;;3.13;;
55210;SDS011;41082;52.822;6.666;2023-02-12T16:26:50;6.63;;;3.00;;
55210;SDS011;41082;52.822;6.666;2023-02-12T16:29:17;6.40;;;2.70;;
55210;SDS011;41082;52.822;6.666;2023-02-12T16:31:57;4.88;;;2.85;;
55210;SDS011;41082;52.822;6.666;2023-02-12T16:34:29;4.40;;;2.67;;
55210;SDS011;41082;52.822;6.666;2023-02-12T16:39:49;3.90;;;2.45;;
55210;SDS011;41082;52.822;6.666;2023-02-12T16:42:20;5.05;;;2.83;;
55210;SDS011;41082;52.822;6.666;2023-02-12T16:44:51;4.40;;;2.90;;
55210;SDS011;41082;52.822;6.666;2023-02-12T16:47:20;5.90;;;2.90;;
55210;SDS011;41082;52.822;6.666;2023-02-12T16:49:58;4.93;;;3.25;;
55210;SDS011;41082;52.822;6.666;2023-02-12T16:54:55;9.20;;;4.85;;
55210;SDS011;41082;52.822;6.666;2023-02-12T16:57:20;10.30;;;4.93;;
55210;SDS011;41082;52.822;6.666;2023-02-12T16:59:46;7.85;;;4.55;;
55210;SDS011;41082;52.822;6.666;2023-02-12T17:02:12;7.55;;;4.45;;
55210;SDS011;41082;52.822;6.666;2023-02-12T17:04:39;9.20;;;5.78;;
55210;SDS011;41082;52.822;6.666;2023-02-12T17:07:18;9.10;;;5.13;;
55210;SDS011;41082;52.822;6.666;2023-02-12T17:09:46;7.15;;;5.38;;
55210;SDS011;41082;52.822;6.666;2023-02-12T17:12:12;10.48;;;6.22;;
55210;SDS011;41082;52.822;6.666;2023-02-12T17:14:37;11.02;;;5.43;;
55210;SDS011;41082;52.822;6.666;2023-02-12T17:17:03;8.88;;;5.82;;
55210;SDS011;41082;52.822;6.666;2023-02-12T17:19:28;12.48;;;6.63;;
55210;SDS011;41082;52.822;6.666;2023-02-12T17:21:54;12.05;;;5.97;;
55210;SDS011;41082;52.822;6.666;2023-02-12T17:24:27;12.88;;;6.28;;
55210;SDS011;41082;52.822;6.666;2023-02-12T17:26:54;9.88;;;6.07;;
55210;SDS011;41082;52.822;6.666;2023-02-12T17:29:21;8.35;;;5.80;;
55210;SDS011;41082;52.822;6.666;2023-02-12T17:31:48;11.02;;;5.72;;
55210;SDS011;41082;52.822;6.666;2023-02-12T17:34:14;11.32;;;4.68;;
55210;SDS011;41082;52.822;6.666;2023-02-12T17:36:40;8.38;;;4.65;;
55210;SDS011;41082;52.822;6.666;2023-02-12T17:39:07;8.68;;;5.03;;
55210;SDS011;41082;52.822;6.666;2023-02-12T17:41:34;6.40;;;4.80;;
55210;SDS011;41082;52.822;6.666;2023-02-12T17:44:00;6.47;;;4.35;;
55210;SDS011;41082;52.822;6.666;2023-02-12T17:46:27;6.22;;;4.43;;
55210;SDS011;41082;52.822;6.666;2023-02-12T17:48:54;8.07;;;4.78;;
55210;SDS011;41082;52.822;6.666;2023-02-12T17:51:20;8.75;;;4.60;;